sensor_id;sensor_type;location;lat;lon;timestamp;P1;durP1;ratioP1;P2;durP2;ratioP2
29934;SDS011;19905;53.370;-6.314;2023-05-16T00:02:14;5.75;;;1.35;;
29934;SDS011;19905;53.370;-6.314;2023-05-16T00:04:43;9.48;;;1.40;;
29934;SDS011;19905;53.370;-6.314;2023-05-16T00:07:11;8.73;;;1.35;;
29934;SDS011;19905;53.370;-6.314;2023-05-16T00:09:40;6.45;;;1.60;;
29934;SDS011;19905;53.370;-6.314;2023-05-16T00:12:08;5.65;;;1.70;;
29934;SDS011;19905;53.370;-6.314;2023-05-16T00:14:37;14.18;;;1.88;;
29934;SDS011;19905;53.370;-6.314;2023-05-16T00:17:07;8.85;;;1.67;;
29934;SDS011;19905;53.370;-6.314;2023-05-16T00:19:38;8.95;;;1.52;;
29934;SDS011;19905;53.370;-6.314;2023-05-16T00:22:07;7.40;;;1.75;;
29934;SDS011;19905;53.370;-6.314;2023-05-16T00:24:37;8.77;;;1.40;;
29934;SDS011;19905;53.370;-6.314;2023-05-16T00:27:05;8.95;;;1.77;;
29934;SDS011;19905;53.370;-6.314;2023-05-16T00:29:34;7.60;;;1.58;;
29934;SDS011;19905;53.370;-6.314;2023-05-16T00:32:03;6.18;;;1.38;;
29934;SDS011;19905;53.370;-6.314;2023-05-16T00:34:35;9.80;;;1.67;;
29934;SDS011;19905;53.370;-6.314;2023-05-16T00:37:04;9.50;;;1.80;;
29934;SDS011;19905;53.370;-6.314;2023-05-16T00:39:33;4.13;;;1.40;;
29934;SDS011;19905;53.370;-6.314;2023-05-16T00:42:01;4.35;;;1.33;;
29934;SDS011;19905;53.370;-6.314;2023-05-16T00:44:30;7.25;;;1.40;;
29934;SDS011;19905;53.370;-6.314;2023-05-16T00:46:59;4.13;;;1.25;;
29934;SDS011;19905;53.370;-6.314;2023-05-16T00:49:28;7.07;;;1.40;;
29934;SDS011;19905;53.370;-6.314;2023-05-16T00:51:59;5.55;;;1.60;;
29934;SDS011;19905;53.370;-6.314;2023-05-16T00:54:28;6.40;;;1.50;;
29934;SDS011;19905;53.370;-6.314;2023-05-16T00:56:57;7.05;;;1.38;;
29934;SDS011;19905;53.370;-6.314;2023-05-16T00:59:26;9.00;;;1.60;;
29934;SDS011;19905;53.370;-6.314;2023-05-16T01:01:54;7.47;;;1.50;;
29934;SDS011;19905;53.370;-6.314;2023-05-16T01:04:23;4.80;;;1.40;;
29934;SDS011;19905;53.370;-6.314;2023-05-16T01:06:52;9.70;;;1.88;;
29934;SDS011;19905;53.370;-6.314;2023-05-16T01:09:26;4.85;;;1.63;;
29934;SDS011;19905;53.370;-6.314;2023-05-16T01:11:57;10.52;;;1.90;;
29934;SDS011;19905;53.370;-6.314;2023-05-16T01:14:37;7.00;;;1.83;;
29934;SDS011;19905;53.370;-6.314;2023-05-16T01:17:14;11.88;;;2.03;;
29934;SDS011;19905;53.370;-6.314;2023-05-16T01:19:54;7.88;;;1.60;;
29934;SDS011;19905;53.370;-6.314;2023-05-16T01:22:35;6.30;;;1.80;;
29934;SDS011;19905;53.370;-6.314;2023-05-16T01:25:16;6.95;;;1.85;;
29934;SDS011;19905;53.370;-6.314;2023-05-16T01:28:00;11.23;;;1.67;;
29934;SDS011;19905;53.370;-6.314;2023-05-16T01:30:31;8.77;;;1.63;;
29934;SDS011;19905;53.370;-6.314;2023-05-16T01:33:02;11.52;;;2.05;;
29934;SDS011;19905;53.370;-6.314;2023-05-16T01:35:30;8.68;;;1.80;;
29934;SDS011;19905;53.370;-6.314;2023-05-16T01:38:02;8.57;;;1.90;;
29934;SDS011;19905;53.370;-6.314;2023-05-16T01:40:35;9.48;;;1.60;;
29934;SDS011;19905;53.370;-6.314;2023-05-16T01:43:16;5.55;;;1.67;;
29934;SDS011;19905;53.370;-6.314;2023-05-16T01:45:50;9.63;;;1.90;;
29934;SDS011;19905;53.370;-6.314;2023-05-16T01:48:29;12.57;;;1.77;;
29934;SDS011;19905;53.370;-6.314;2023-05-16T01:51:04;5.90;;;1.75;;
29934;SDS011;19905;53.370;-6.314;2023-05-16T01:53:35;6.65;;;1.60;;
29934;SDS011;19905;53.370;-6.314;2023-05-16T01:56:08;6.20;;;1.73;;
29934;SDS011;19905;53.370;-6.314;2023-05-16T01:58:43;6.55;;;1.70;;
29934;SDS011;19905;53.370;-6.314;2023-05-16T02:01:15;7.75;;;1.70;;
29934;SDS011;19905;53.370;-6.314;2023-05-16T02:03:43;7.63;;;1.80;;
29934;SDS011;19905;53.370;-6.314;2023-05-16T02:06:12;5.93;;;1.67;;
29934;SDS011;19905;53.370;-6.314;2023-05-16T02:08:40;5.70;;;1.75;;
29934;SDS011;19905;53.370;-6.314;2023-05-16T02:11:09;6.45;;;1.95;;
29934;SDS011;19905;53.370;-6.314;2023-05-16T02:13:37;13.65;;;2.20;;
29934;SDS011;19905;53.370;-6.314;2023-05-16T02:16:09;7.43;;;1.70;;
29934;SDS011;19905;53.370;-6.314;2023-05-16T02:18:38;8.48;;;2.35;;
29934;SDS011;19905;53.370;-6.314;2023-05-16T02:21:07;5.70;;;1.80;;
29934;SDS011;19905;53.370;-6.314;2023-05-16T02:23:35;8.15;;;1.90;;
29934;SDS011;19905;53.370;-6.314;2023-05-16T02:26:04;11.07;;;2.05;;
29934;SDS011;19905;53.370;-6.314;2023-05-16T02:28:32;9.00;;;2.17;;
29934;SDS011;19905;53.370;-6.314;2023-05-16T02:31:01;6.63;;;1.77;;
29934;SDS011;19905;53.370;-6.314;2023-05-16T02:33:32;8.93;;;2.17;;
29934;SDS011;19905;53.370;-6.314;2023-05-16T02:36:01;11.73;;;1.90;;
29934;SDS011;19905;53.370;-6.314;2023-05-16T02:38:30;7.32;;;1.98;;
29934;SDS011;19905;53.370;-6.314;2023-05-16T02:40:58;7.93;;;1.83;;
29934;SDS011;19905;53.370;-6.314;2023-05-16T02:43:27;8.82;;;1.98;;
29934;SDS011;19905;53.370;-6.314;2023-05-16T02:45:55;7.47;;;1.58;;
29934;SDS011;19905;53.370;-6.314;2023-05-16T02:48:24;7.20;;;1.95;;
29934;SDS011;19905;53.370;-6.314;2023-05-16T02:50:54;10.80;;;2.00;;
29934;SDS011;19905;53.370;-6.314;2023-05-16T02:53:22;6.60;;;2.05;;
29934;SDS011;19905;53.370;-6.314;2023-05-16T02:55:51;6.55;;;1.95;;
29934;SDS011;19905;53.370;-6.314;2023-05-16T02:58:19;8.98;;;2.10;;
29934;SDS011;19905;53.370;-6.314;2023-05-16T03:00:47;11.20;;;2.05;;
29934;SDS011;19905;53.370;-6.314;2023-05-16T03:03:16;9.50;;;1.92;;
29934;SDS011;19905;53.370;-6.314;2023-05-16T03:05:45;7.03;;;1.80;;
29934;SDS011;19905;53.370;-6.314;2023-05-16T03:08:15;9.38;;;2.08;;
29934;SDS011;19905;53.370;-6.314;2023-05-16T03:10:44;7.63;;;2.10;;
29934;SDS011;19905;53.370;-6.314;2023-05-16T03:13:13;9.52;;;2.05;;
29934;SDS011;19905;53.370;-6.314;2023-05-16T03:15:41;6.15;;;2.05;;
29934;SDS011;19905;53.370;-6.314;2023-05-16T03:18:10;6.93;;;1.90;;
29934;SDS011;19905;53.370;-6.314;2023-05-16T03:20:39;4.28;;;1.70;;
29934;SDS011;19905;53.370;-6.314;2023-05-16T03:23:07;9.38;;;2.20;;
29934;SDS011;19905;53.370;-6.314;2023-05-16T03:25:38;5.15;;;1.75;;
29934;SDS011;19905;53.370;-6.314;2023-05-16T03:28:06;8.82;;;2.00;;
29934;SDS011;19905;53.370;-6.314;2023-05-16T03:30:35;6.65;;;1.90;;
29934;SDS011;19905;53.370;-6.314;2023-05-16T03:33:04;6.38;;;1.92;;
29934;SDS011;19905;53.370;-6.314;2023-05-16T03:35:33;6.90;;;2.20;;
29934;SDS011;19905;53.370;-6.314;2023-05-16T03:38:02;8.52;;;2.05;;
29934;SDS011;19905;53.370;-6.314;2023-05-16T03:40:31;9.40;;;2.15;;
29934;SDS011;19905;53.370;-6.314;2023-05-16T03:43:01;8.45;;;2.00;;
29934;SDS011;19905;53.370;-6.314;2023-05-16T03:45:30;9.90;;;2.00;;
29934;SDS011;19905;53.370;-6.314;2023-05-16T03:47:58;6.10;;;2.00;;
29934;SDS011;19905;53.370;-6.314;2023-05-16T03:50:27;8.13;;;1.98;;
29934;SDS011;19905;53.370;-6.314;2023-05-16T03:52:55;9.77;;;2.28;;
29934;SDS011;19905;53.370;-6.314;2023-05-16T03:55:25;8.77;;;1.98;;
29934;SDS011;19905;53.370;-6.314;2023-05-16T03:57:54;11.32;;;2.35;;
29934;SDS011;19905;53.370;-6.314;2023-05-16T04:00:24;7.10;;;2.13;;
29934;SDS011;19905;53.370;-6.314;2023-05-16T04:02:53;11.00;;;2.08;;
29934;SDS011;19905;53.370;-6.314;2023-05-16T04:05:22;6.13;;;1.90;;
29934;SDS011;19905;53.370;-6.314;2023-05-16T04:07:51;9.32;;;2.10;;
29934;SDS011;19905;53.370;-6.314;2023-05-16T04:10:19;6.60;;;1.85;;
29934;SDS011;19905;53.370;-6.314;2023-05-16T04:12:48;9.05;;;2.33;;
29934;SDS011;19905;53.370;-6.314;2023-05-16T04:15:17;7.45;;;2.00;;
29934;SDS011;19905;53.370;-6.314;2023-05-16T04:17:48;5.55;;;2.00;;
29934;SDS011;19905;53.370;-6.314;2023-05-16T04:20:16;7.57;;;1.98;;
29934;SDS011;19905;53.370;-6.314;2023-05-16T04:22:45;7.03;;;1.80;;
29934;SDS011;19905;53.370;-6.314;2023-05-16T04:25:14;7.55;;;2.00;;
29934;SDS011;19905;53.370;-6.314;2023-05-16T04:27:42;6.68;;;2.00;;
29934;SDS011;19905;53.370;-6.314;2023-05-16T04:30:11;9.38;;;2.05;;
29934;SDS011;19905;53.370;-6.314;2023-05-16T04:32:41;6.43;;;1.88;;
29934;SDS011;19905;53.370;-6.314;2023-05-16T04:35:11;14.35;;;2.35;;
29934;SDS011;19905;53.370;-6.314;2023-05-16T04:37:40;8.55;;;1.60;;
29934;SDS011;19905;53.370;-6.314;2023-05-16T04:40:10;9.98;;;2.10;;
29934;SDS011;19905;53.370;-6.314;2023-05-16T04:42:40;9.18;;;1.98;;
29934;SDS011;19905;53.370;-6.314;2023-05-16T04:45:09;8.30;;;2.15;;
29934;SDS011;19905;53.370;-6.314;2023-05-16T04:47:40;9.68;;;2.00;;
29934;SDS011;19905;53.370;-6.314;2023-05-16T04:50:09;9.52;;;2.20;;
29934;SDS011;19905;53.370;-6.314;2023-05-16T04:52:39;10.43;;;2.20;;
29934;SDS011;19905;53.370;-6.314;2023-05-16T04:55:08;9.65;;;2.10;;
29934;SDS011;19905;53.370;-6.314;2023-05-16T04:57:37;11.73;;;2.30;;
29934;SDS011;19905;53.370;-6.314;2023-05-16T05:00:06;8.77;;;2.15;;
29934;SDS011;19905;53.370;-6.314;2023-05-16T05:02:37;6.88;;;2.08;;
29934;SDS011;19905;53.370;-6.314;2023-05-16T05:05:07;7.60;;;1.90;;
29934;SDS011;19905;53.370;-6.314;2023-05-16T05:07:37;10.90;;;2.03;;
29934;SDS011;19905;53.370;-6.314;2023-05-16T05:10:07;6.05;;;1.85;;
29934;SDS011;19905;53.370;-6.314;2023-05-16T05:12:37;8.75;;;2.40;;
29934;SDS011;19905;53.370;-6.314;2023-05-16T05:15:06;11.30;;;2.20;;
29934;SDS011;19905;53.370;-6.314;2023-05-16T05:17:35;8.32;;;2.00;;
29934;SDS011;19905;53.370;-6.314;2023-05-16T05:20:05;10.75;;;2.20;;
29934;SDS011;19905;53.370;-6.314;2023-05-16T05:22:36;5.43;;;2.10;;
29934;SDS011;19905;53.370;-6.314;2023-05-16T05:25:06;11.05;;;2.05;;
29934;SDS011;19905;53.370;-6.314;2023-05-16T05:27:35;11.52;;;2.25;;
29934;SDS011;19905;53.370;-6.314;2023-05-16T05:30:05;5.85;;;2.13;;
29934;SDS011;19905;53.370;-6.314;2023-05-16T05:32:34;11.05;;;2.20;;
29934;SDS011;19905;53.370;-6.314;2023-05-16T05:35:03;10.38;;;2.00;;
29934;SDS011;19905;53.370;-6.314;2023-05-16T05:37:33;7.70;;;2.38;;
29934;SDS011;19905;53.370;-6.314;2023-05-16T05:40:02;11.20;;;2.20;;
29934;SDS011;19905;53.370;-6.314;2023-05-16T05:42:32;9.50;;;2.10;;
29934;SDS011;19905;53.370;-6.314;2023-05-16T05:45:01;11.10;;;2.50;;
29934;SDS011;19905;53.370;-6.314;2023-05-16T05:47:30;13.68;;;2.30;;
29934;SDS011;19905;53.370;-6.314;2023-05-16T05:49:59;14.77;;;2.72;;
29934;SDS011;19905;53.370;-6.314;2023-05-16T05:52:28;9.27;;;2.25;;
29934;SDS011;19905;53.370;-6.314;2023-05-16T05:54:57;11.30;;;2.75;;
29934;SDS011;19905;53.370;-6.314;2023-05-16T05:57:26;12.27;;;2.53;;
29934;SDS011;19905;53.370;-6.314;2023-05-16T05:59:56;13.48;;;2.75;;
29934;SDS011;19905;53.370;-6.314;2023-05-16T06:02:24;11.32;;;2.55;;
29934;SDS011;19905;53.370;-6.314;2023-05-16T06:04:52;11.35;;;2.53;;
29934;SDS011;19905;53.370;-6.314;2023-05-16T06:07:21;9.45;;;2.70;;
29934;SDS011;19905;53.370;-6.314;2023-05-16T06:09:50;9.43;;;2.50;;
29934;SDS011;19905;53.370;-6.314;2023-05-16T06:12:18;13.25;;;2.83;;
29934;SDS011;19905;53.370;-6.314;2023-05-16T06:14:47;9.63;;;2.90;;
29934;SDS011;19905;53.370;-6.314;2023-05-16T06:17:17;13.75;;;2.75;;
29934;SDS011;19905;53.370;-6.314;2023-05-16T06:19:45;11.30;;;3.03;;
29934;SDS011;19905;53.370;-6.314;2023-05-16T06:22:14;13.45;;;3.05;;
29934;SDS011;19905;53.370;-6.314;2023-05-16T06:24:43;16.95;;;2.58;;
29934;SDS011;19905;53.370;-6.314;2023-05-16T06:27:11;11.77;;;2.72;;
29934;SDS011;19905;53.370;-6.314;2023-05-16T06:29:39;12.40;;;3.05;;
29934;SDS011;19905;53.370;-6.314;2023-05-16T06:32:08;13.35;;;2.72;;
29934;SDS011;19905;53.370;-6.314;2023-05-16T06:34:40;12.60;;;2.90;;
29934;SDS011;19905;53.370;-6.314;2023-05-16T06:37:08;13.38;;;3.20;;
29934;SDS011;19905;53.370;-6.314;2023-05-16T06:39:37;13.32;;;3.03;;
29934;SDS011;19905;53.370;-6.314;2023-05-16T06:42:05;12.23;;;2.67;;
29934;SDS011;19905;53.370;-6.314;2023-05-16T06:44:34;18.52;;;2.95;;
29934;SDS011;19905;53.370;-6.314;2023-05-16T06:47:03;16.05;;;3.38;;
29934;SDS011;19905;53.370;-6.314;2023-05-16T06:49:32;9.38;;;2.78;;
29934;SDS011;19905;53.370;-6.314;2023-05-16T06:52:02;13.98;;;3.45;;
29934;SDS011;19905;53.370;-6.314;2023-05-16T06:54:31;9.25;;;2.83;;
29934;SDS011;19905;53.370;-6.314;2023-05-16T06:57:00;15.05;;;3.47;;
29934;SDS011;19905;53.370;-6.314;2023-05-16T06:59:29;22.33;;;3.83;;
29934;SDS011;19905;53.370;-6.314;2023-05-16T07:01:58;12.63;;;3.50;;
29934;SDS011;19905;53.370;-6.314;2023-05-16T07:04:27;16.00;;;3.92;;
29934;SDS011;19905;53.370;-6.314;2023-05-16T07:06:56;17.40;;;3.22;;
29934;SDS011;19905;53.370;-6.314;2023-05-16T07:09:26;17.92;;;3.38;;
29934;SDS011;19905;53.370;-6.314;2023-05-16T07:11:54;14.85;;;3.17;;
29934;SDS011;19905;53.370;-6.314;2023-05-16T07:14:23;17.02;;;3.80;;
29934;SDS011;19905;53.370;-6.314;2023-05-16T07:16:52;16.55;;;4.00;;
29934;SDS011;19905;53.370;-6.314;2023-05-16T07:19:20;15.35;;;3.63;;
29934;SDS011;19905;53.370;-6.314;2023-05-16T07:21:49;15.35;;;3.50;;
29934;SDS011;19905;53.370;-6.314;2023-05-16T07:24:18;18.38;;;3.92;;
29934;SDS011;19905;53.370;-6.314;2023-05-16T07:26:48;23.17;;;3.45;;
29934;SDS011;19905;53.370;-6.314;2023-05-16T07:29:17;19.77;;;3.50;;
29934;SDS011;19905;53.370;-6.314;2023-05-16T07:31:47;18.27;;;3.80;;
29934;SDS011;19905;53.370;-6.314;2023-05-16T07:34:15;16.48;;;3.85;;
29934;SDS011;19905;53.370;-6.314;2023-05-16T07:36:46;15.52;;;3.85;;
29934;SDS011;19905;53.370;-6.314;2023-05-16T07:39:15;19.48;;;3.92;;
29934;SDS011;19905;53.370;-6.314;2023-05-16T07:41:43;12.25;;;4.25;;
29934;SDS011;19905;53.370;-6.314;2023-05-16T07:44:15;15.55;;;4.00;;
29934;SDS011;19905;53.370;-6.314;2023-05-16T07:46:44;18.70;;;4.50;;
29934;SDS011;19905;53.370;-6.314;2023-05-16T07:49:12;21.63;;;4.28;;
29934;SDS011;19905;53.370;-6.314;2023-05-16T07:51:41;22.35;;;4.40;;
29934;SDS011;19905;53.370;-6.314;2023-05-16T07:54:10;23.08;;;4.55;;
29934;SDS011;19905;53.370;-6.314;2023-05-16T07:56:38;18.88;;;4.45;;
29934;SDS011;19905;53.370;-6.314;2023-05-16T07:59:07;20.35;;;4.43;;
29934;SDS011;19905;53.370;-6.314;2023-05-16T08:01:42;18.95;;;4.45;;
29934;SDS011;19905;53.370;-6.314;2023-05-16T08:04:11;17.45;;;4.40;;
29934;SDS011;19905;53.370;-6.314;2023-05-16T08:06:40;17.50;;;4.35;;
29934;SDS011;19905;53.370;-6.314;2023-05-16T08:09:09;19.60;;;4.53;;
29934;SDS011;19905;53.370;-6.314;2023-05-16T08:11:38;15.73;;;4.00;;
29934;SDS011;19905;53.370;-6.314;2023-05-16T08:14:07;19.23;;;5.93;;
29934;SDS011;19905;53.370;-6.314;2023-05-16T08:16:35;28.75;;;5.38;;
29934;SDS011;19905;53.370;-6.314;2023-05-16T08:19:05;19.67;;;4.40;;
29934;SDS011;19905;53.370;-6.314;2023-05-16T08:21:34;29.38;;;4.13;;
29934;SDS011;19905;53.370;-6.314;2023-05-16T08:24:04;21.73;;;4.93;;
29934;SDS011;19905;53.370;-6.314;2023-05-16T08:26:34;22.85;;;4.97;;
29934;SDS011;19905;53.370;-6.314;2023-05-16T08:29:03;24.63;;;5.18;;
29934;SDS011;19905;53.370;-6.314;2023-05-16T08:31:32;23.27;;;4.93;;
29934;SDS011;19905;53.370;-6.314;2023-05-16T08:34:01;21.02;;;4.80;;
29934;SDS011;19905;53.370;-6.314;2023-05-16T08:36:33;19.63;;;5.07;;
29934;SDS011;19905;53.370;-6.314;2023-05-16T08:39:02;21.63;;;5.18;;
29934;SDS011;19905;53.370;-6.314;2023-05-16T08:41:31;28.00;;;5.05;;
29934;SDS011;19905;53.370;-6.314;2023-05-16T08:44:00;16.83;;;4.93;;
29934;SDS011;19905;53.370;-6.314;2023-05-16T08:46:29;25.83;;;4.78;;
29934;SDS011;19905;53.370;-6.314;2023-05-16T08:49:01;23.20;;;5.45;;
29934;SDS011;19905;53.370;-6.314;2023-05-16T08:51:35;22.00;;;4.60;;
29934;SDS011;19905;53.370;-6.314;2023-05-16T08:54:05;20.80;;;4.43;;
29934;SDS011;19905;53.370;-6.314;2023-05-16T08:56:40;18.73;;;4.97;;
29934;SDS011;19905;53.370;-6.314;2023-05-16T08:59:09;25.20;;;5.60;;
29934;SDS011;19905;53.370;-6.314;2023-05-16T09:01:38;24.05;;;4.90;;
29934;SDS011;19905;53.370;-6.314;2023-05-16T09:04:09;26.27;;;5.00;;
29934;SDS011;19905;53.370;-6.314;2023-05-16T09:06:40;18.70;;;4.65;;
29934;SDS011;19905;53.370;-6.314;2023-05-16T09:09:08;21.52;;;4.78;;
29934;SDS011;19905;53.370;-6.314;2023-05-16T09:11:38;17.52;;;4.03;;
29934;SDS011;19905;53.370;-6.314;2023-05-16T09:14:07;22.33;;;4.28;;
29934;SDS011;19905;53.370;-6.314;2023-05-16T09:16:35;24.25;;;4.18;;
29934;SDS011;19905;53.370;-6.314;2023-05-16T09:19:06;17.63;;;4.25;;
29934;SDS011;19905;53.370;-6.314;2023-05-16T09:21:35;19.20;;;3.95;;
29934;SDS011;19905;53.370;-6.314;2023-05-16T09:24:07;25.85;;;5.13;;
29934;SDS011;19905;53.370;-6.314;2023-05-16T09:26:37;21.88;;;4.10;;
29934;SDS011;19905;53.370;-6.314;2023-05-16T09:29:10;20.90;;;4.20;;
29934;SDS011;19905;53.370;-6.314;2023-05-16T09:31:39;20.25;;;4.30;;
29934;SDS011;19905;53.370;-6.314;2023-05-16T09:34:08;23.23;;;4.70;;
29934;SDS011;19905;53.370;-6.314;2023-05-16T09:36:38;17.63;;;4.25;;
29934;SDS011;19905;53.370;-6.314;2023-05-16T09:39:11;21.10;;;4.13;;
29934;SDS011;19905;53.370;-6.314;2023-05-16T09:41:42;29.40;;;4.63;;
29934;SDS011;19905;53.370;-6.314;2023-05-16T09:44:11;16.75;;;4.30;;
29934;SDS011;19905;53.370;-6.314;2023-05-16T09:46:40;19.80;;;4.32;;
29934;SDS011;19905;53.370;-6.314;2023-05-16T09:49:10;19.85;;;4.43;;
29934;SDS011;19905;53.370;-6.314;2023-05-16T09:51:40;26.08;;;4.57;;
29934;SDS011;19905;53.370;-6.314;2023-05-16T09:54:08;18.52;;;4.05;;
29934;SDS011;19905;53.370;-6.314;2023-05-16T09:56:47;21.85;;;4.30;;
29934;SDS011;19905;53.370;-6.314;2023-05-16T09:59:17;22.48;;;4.75;;
29934;SDS011;19905;53.370;-6.314;2023-05-16T10:01:46;24.85;;;5.18;;
29934;SDS011;19905;53.370;-6.314;2023-05-16T10:04:17;15.25;;;4.32;;
29934;SDS011;19905;53.370;-6.314;2023-05-16T10:06:46;18.45;;;4.32;;
29934;SDS011;19905;53.370;-6.314;2023-05-16T10:09:21;18.13;;;4.22;;
29934;SDS011;19905;53.370;-6.314;2023-05-16T10:11:51;22.45;;;4.50;;
29934;SDS011;19905;53.370;-6.314;2023-05-16T10:14:23;18.65;;;4.13;;
29934;SDS011;19905;53.370;-6.314;2023-05-16T10:16:53;20.63;;;4.38;;
29934;SDS011;19905;53.370;-6.314;2023-05-16T10:19:24;20.08;;;4.32;;
29934;SDS011;19905;53.370;-6.314;2023-05-16T10:21:54;19.23;;;4.65;;
29934;SDS011;19905;53.370;-6.314;2023-05-16T10:24:30;18.20;;;4.88;;
29934;SDS011;19905;53.370;-6.314;2023-05-16T10:27:11;25.95;;;4.75;;
29934;SDS011;19905;53.370;-6.314;2023-05-16T10:29:41;14.60;;;4.80;;
29934;SDS011;19905;53.370;-6.314;2023-05-16T10:32:20;17.27;;;4.90;;
29934;SDS011;19905;53.370;-6.314;2023-05-16T10:34:51;24.67;;;4.82;;
29934;SDS011;19905;53.370;-6.314;2023-05-16T10:37:22;20.27;;;4.95;;
29934;SDS011;19905;53.370;-6.314;2023-05-16T10:39:54;25.38;;;4.90;;
29934;SDS011;19905;53.370;-6.314;2023-05-16T10:42:23;24.92;;;4.68;;
29934;SDS011;19905;53.370;-6.314;2023-05-16T10:44:54;21.17;;;5.07;;
29934;SDS011;19905;53.370;-6.314;2023-05-16T10:47:31;23.20;;;5.05;;
29934;SDS011;19905;53.370;-6.314;2023-05-16T10:50:00;18.90;;;4.53;;
29934;SDS011;19905;53.370;-6.314;2023-05-16T10:52:32;20.42;;;5.35;;
29934;SDS011;19905;53.370;-6.314;2023-05-16T10:55:04;20.42;;;4.80;;
29934;SDS011;19905;53.370;-6.314;2023-05-16T10:57:33;18.98;;;4.60;;
29934;SDS011;19905;53.370;-6.314;2023-05-16T11:00:02;18.48;;;4.90;;
29934;SDS011;19905;53.370;-6.314;2023-05-16T11:02:49;18.65;;;5.13;;
29934;SDS011;19905;53.370;-6.314;2023-05-16T11:05:18;21.80;;;5.47;;
29934;SDS011;19905;53.370;-6.314;2023-05-16T11:07:47;20.05;;;4.70;;
29934;SDS011;19905;53.370;-6.314;2023-05-16T11:10:32;19.45;;;5.10;;
29934;SDS011;19905;53.370;-6.314;2023-05-16T11:13:01;20.25;;;4.70;;
29934;SDS011;19905;53.370;-6.314;2023-05-16T11:15:34;17.48;;;4.40;;
29934;SDS011;19905;53.370;-6.314;2023-05-16T11:18:05;17.23;;;4.70;;
29934;SDS011;19905;53.370;-6.314;2023-05-16T11:20:38;16.70;;;4.28;;
29934;SDS011;19905;53.370;-6.314;2023-05-16T11:23:18;20.02;;;4.93;;
29934;SDS011;19905;53.370;-6.314;2023-05-16T11:25:55;16.45;;;4.40;;
29934;SDS011;19905;53.370;-6.314;2023-05-16T11:28:27;14.40;;;4.45;;
29934;SDS011;19905;53.370;-6.314;2023-05-16T11:30:57;14.18;;;4.47;;
29934;SDS011;19905;53.370;-6.314;2023-05-16T11:33:29;18.30;;;4.68;;
29934;SDS011;19905;53.370;-6.314;2023-05-16T11:36:02;18.40;;;4.70;;
29934;SDS011;19905;53.370;-6.314;2023-05-16T11:38:42;17.17;;;4.50;;
29934;SDS011;19905;53.370;-6.314;2023-05-16T11:41:12;14.70;;;4.90;;
29934;SDS011;19905;53.370;-6.314;2023-05-16T11:43:44;17.42;;;5.00;;
29934;SDS011;19905;53.370;-6.314;2023-05-16T11:46:13;17.83;;;4.80;;
29934;SDS011;19905;53.370;-6.314;2023-05-16T11:48:44;17.00;;;4.85;;
29934;SDS011;19905;53.370;-6.314;2023-05-16T11:51:13;18.08;;;4.35;;
29934;SDS011;19905;53.370;-6.314;2023-05-16T11:53:46;16.15;;;5.07;;
29934;SDS011;19905;53.370;-6.314;2023-05-16T11:56:17;19.48;;;4.97;;
29934;SDS011;19905;53.370;-6.314;2023-05-16T11:58:50;17.00;;;4.82;;
29934;SDS011;19905;53.370;-6.314;2023-05-16T12:01:18;18.23;;;5.03;;
29934;SDS011;19905;53.370;-6.314;2023-05-16T12:03:53;15.02;;;4.60;;
29934;SDS011;19905;53.370;-6.314;2023-05-16T12:06:23;14.90;;;4.63;;
29934;SDS011;19905;53.370;-6.314;2023-05-16T12:08:54;14.43;;;4.32;;
29934;SDS011;19905;53.370;-6.314;2023-05-16T12:11:24;15.07;;;4.53;;
29934;SDS011;19905;53.370;-6.314;2023-05-16T12:13:53;18.60;;;5.07;;
29934;SDS011;19905;53.370;-6.314;2023-05-16T12:16:22;17.48;;;4.25;;
29934;SDS011;19905;53.370;-6.314;2023-05-16T12:18:52;15.75;;;4.63;;
29934;SDS011;19905;53.370;-6.314;2023-05-16T12:21:21;14.57;;;4.70;;
29934;SDS011;19905;53.370;-6.314;2023-05-16T12:23:52;19.27;;;4.85;;
29934;SDS011;19905;53.370;-6.314;2023-05-16T12:26:26;17.45;;;4.88;;
29934;SDS011;19905;53.370;-6.314;2023-05-16T12:28:57;19.17;;;4.70;;
29934;SDS011;19905;53.370;-6.314;2023-05-16T12:31:29;15.68;;;4.20;;
29934;SDS011;19905;53.370;-6.314;2023-05-16T12:33:59;15.30;;;4.50;;
29934;SDS011;19905;53.370;-6.314;2023-05-16T12:36:30;15.27;;;4.60;;
29934;SDS011;19905;53.370;-6.314;2023-05-16T12:39:00;18.83;;;4.65;;
29934;SDS011;19905;53.370;-6.314;2023-05-16T12:41:31;18.27;;;4.70;;
29934;SDS011;19905;53.370;-6.314;2023-05-16T12:44:06;17.48;;;5.10;;
29934;SDS011;19905;53.370;-6.314;2023-05-16T12:46:40;12.57;;;4.28;;
29934;SDS011;19905;53.370;-6.314;2023-05-16T12:49:11;13.95;;;3.80;;
29934;SDS011;19905;53.370;-6.314;2023-05-16T12:51:46;15.05;;;4.70;;
29934;SDS011;19905;53.370;-6.314;2023-05-16T12:54:16;15.70;;;4.10;;
29934;SDS011;19905;53.370;-6.314;2023-05-16T12:56:47;17.63;;;4.75;;
29934;SDS011;19905;53.370;-6.314;2023-05-16T12:59:16;16.63;;;4.82;;
29934;SDS011;19905;53.370;-6.314;2023-05-16T13:01:45;17.10;;;4.57;;
29934;SDS011;19905;53.370;-6.314;2023-05-16T13:04:14;15.15;;;4.40;;
29934;SDS011;19905;53.370;-6.314;2023-05-16T13:06:48;16.95;;;4.20;;
29934;SDS011;19905;53.370;-6.314;2023-05-16T13:09:20;13.98;;;4.05;;
29934;SDS011;19905;53.370;-6.314;2023-05-16T13:11:51;16.75;;;4.25;;
29934;SDS011;19905;53.370;-6.314;2023-05-16T13:14:19;13.43;;;4.50;;
29934;SDS011;19905;53.370;-6.314;2023-05-16T13:16:48;11.65;;;4.18;;
29934;SDS011;19905;53.370;-6.314;2023-05-16T13:19:17;14.57;;;4.28;;
29934;SDS011;19905;53.370;-6.314;2023-05-16T13:21:47;15.02;;;4.50;;
29934;SDS011;19905;53.370;-6.314;2023-05-16T13:24:15;13.02;;;4.38;;
29934;SDS011;19905;53.370;-6.314;2023-05-16T13:26:44;14.52;;;4.40;;
29934;SDS011;19905;53.370;-6.314;2023-05-16T13:29:14;15.25;;;4.20;;
29934;SDS011;19905;53.370;-6.314;2023-05-16T13:31:43;13.73;;;4.28;;
29934;SDS011;19905;53.370;-6.314;2023-05-16T13:34:12;17.13;;;4.53;;
29934;SDS011;19905;53.370;-6.314;2023-05-16T13:36:40;15.82;;;4.05;;
29934;SDS011;19905;53.370;-6.314;2023-05-16T13:39:22;21.63;;;4.50;;
29934;SDS011;19905;53.370;-6.314;2023-05-16T13:41:50;15.15;;;4.47;;
29934;SDS011;19905;53.370;-6.314;2023-05-16T13:44:20;15.63;;;4.10;;
29934;SDS011;19905;53.370;-6.314;2023-05-16T13:46:49;17.80;;;4.07;;
29934;SDS011;19905;53.370;-6.314;2023-05-16T13:49:18;13.48;;;4.10;;
29934;SDS011;19905;53.370;-6.314;2023-05-16T13:51:47;12.40;;;3.65;;
29934;SDS011;19905;53.370;-6.314;2023-05-16T13:54:17;15.18;;;3.72;;
29934;SDS011;19905;53.370;-6.314;2023-05-16T13:56:47;13.80;;;3.58;;
29934;SDS011;19905;53.370;-6.314;2023-05-16T13:59:16;13.50;;;3.80;;
29934;SDS011;19905;53.370;-6.314;2023-05-16T14:02:06;15.25;;;3.92;;
29934;SDS011;19905;53.370;-6.314;2023-05-16T14:04:35;14.93;;;3.97;;
29934;SDS011;19905;53.370;-6.314;2023-05-16T14:07:04;13.88;;;4.00;;
29934;SDS011;19905;53.370;-6.314;2023-05-16T14:09:32;16.98;;;4.22;;
29934;SDS011;19905;53.370;-6.314;2023-05-16T14:12:05;13.80;;;4.25;;
29934;SDS011;19905;53.370;-6.314;2023-05-16T14:14:34;18.13;;;4.38;;
29934;SDS011;19905;53.370;-6.314;2023-05-16T14:17:03;16.23;;;4.30;;
29934;SDS011;19905;53.370;-6.314;2023-05-16T14:19:34;19.85;;;4.80;;
29934;SDS011;19905;53.370;-6.314;2023-05-16T14:22:03;14.40;;;4.10;;
29934;SDS011;19905;53.370;-6.314;2023-05-16T14:24:32;17.33;;;4.13;;
29934;SDS011;19905;53.370;-6.314;2023-05-16T14:27:00;14.55;;;4.47;;
29934;SDS011;19905;53.370;-6.314;2023-05-16T14:29:29;10.98;;;3.78;;
29934;SDS011;19905;53.370;-6.314;2023-05-16T14:31:58;16.95;;;4.57;;
29934;SDS011;19905;53.370;-6.314;2023-05-16T14:34:26;15.90;;;4.10;;
29934;SDS011;19905;53.370;-6.314;2023-05-16T14:36:57;14.25;;;4.07;;
29934;SDS011;19905;53.370;-6.314;2023-05-16T14:39:27;14.77;;;4.03;;
29934;SDS011;19905;53.370;-6.314;2023-05-16T14:41:56;16.65;;;4.50;;
29934;SDS011;19905;53.370;-6.314;2023-05-16T14:44:25;17.10;;;3.75;;